Time;durP1;ratioP1;P1;durP2;ratioP2;P2;SDS_P1;SDS_P2;PMS_P1;PMS_P2;Temp;Humidity;BMP_temperature;BMP_pressure;BME280_temperature;BME280_humidity;BME280_pressure;Samples;Min_cycle;Max_cycle;Signal;HPM_P1;HPM_P2
2023/06/25 00:01:40;;;;;;;7.17;4.73;;;14.10;99.90;16.20;97272.00;;;;5047826;28;20228;-73
2023/06/25 00:04:29;;;;;;;5.77;4.83;;;14.10;99.90;16.40;97271.00;;;;5048044;28;20567;-73
2023/06/25 00:07:17;;;;;;;6.17;5.20;;;14.00;99.90;16.50;97265.00;;;;5047570;28;20204;-73
2023/06/25 00:10:09;;;;;;;5.23;4.73;;;14.10;99.90;16.30;97253.00;;;;5047683;28;20843;-73
2023/06/25 00:12:58;;;;;;;8.70;5.53;;;14.10;99.90;16.10;97245.00;;;;5041456;28;20204;-73
2023/06/25 00:15:46;;;;;;;9.23;5.60;;;14.00;99.90;15.90;97247.00;;;;5048448;28;20628;-73
2023/06/25 00:18:35;;;;;;;5.37;4.87;;;13.90;99.90;16.20;97254.00;;;;5048369;28;20570;-72
2023/06/25 00:21:24;;;;;;;9.13;5.00;;;13.90;99.90;16.50;97247.00;;;;5047518;28;20752;-72
2023/06/25 00:24:14;;;;;;;5.73;5.17;;;14.00;99.90;16.20;97254.00;;;;5043670;28;20205;-73
2023/06/25 00:27:05;;;;;;;7.47;5.33;;;14.00;99.90;16.00;97248.00;;;;5050680;28;20209;-73
2023/06/25 00:29:54;;;;;;;7.20;4.97;;;13.90;99.90;16.10;97241.00;;;;5047087;28;20769;-72
2023/06/25 00:32:43;;;;;;;5.73;4.90;;;13.90;99.90;15.70;97240.00;;;;5046496;28;20197;-72
2023/06/25 00:36:06;;;;;;;5.97;5.00;;;13.90;99.90;15.80;97245.00;;;;5046502;28;20254;-72
2023/06/25 00:38:55;;;;;;;8.73;4.83;;;13.70;99.90;16.10;97233.00;;;;5042050;28;20251;-72
2023/06/25 00:41:44;;;;;;;6.60;4.93;;;13.70;99.90;16.00;97231.00;;;;5054308;28;20243;-72
2023/06/25 00:44:40;;;;;;;8.20;5.03;;;13.70;99.90;15.90;97244.00;;;;5047485;28;20232;-72
2023/06/25 00:47:29;;;;;;;6.20;4.80;;;13.70;99.90;15.80;97242.00;;;;5046562;28;20261;-72
2023/06/25 00:50:21;;;;;;;11.77;6.40;;;13.60;99.90;15.50;97235.00;;;;5044297;28;20274;-72
2023/06/25 00:53:10;;;;;;;5.53;4.63;;;13.60;99.90;15.80;97231.00;;;;5053753;28;20200;-72
2023/06/25 00:55:59;;;;;;;8.40;5.10;;;13.50;99.90;15.90;97231.00;;;;5049841;28;20216;-72
2023/06/25 00:58:48;;;;;;;7.33;4.80;;;13.50;99.90;15.80;97222.00;;;;5048654;28;20217;-73
2023/06/25 01:01:47;;;;;;;6.23;4.83;;;13.50;99.90;15.70;97221.00;;;;5046921;28;20225;-72
2023/06/25 01:04:43;;;;;;;5.83;5.23;;;13.50;99.90;15.70;97224.00;;;;5046705;28;20200;-72
2023/06/25 01:07:36;;;;;;;6.77;5.23;;;13.40;99.90;15.30;97210.00;;;;5046359;28;20215;-72
2023/06/25 01:10:25;;;;;;;5.07;4.50;;;13.40;99.90;15.10;97210.00;;;;5050787;28;20232;-72
2023/06/25 01:13:14;;;;;;;12.00;5.07;;;13.30;99.90;15.20;97205.00;;;;5047035;28;20741;-72
2023/06/25 01:16:03;;;;;;;6.13;4.83;;;13.10;99.90;15.30;97200.00;;;;5042252;28;20215;-72
2023/06/25 01:18:58;;;;;;;5.53;4.73;;;13.10;99.90;15.30;97198.00;;;;5047655;28;20224;-72
2023/06/25 01:21:51;;;;;;;9.60;5.23;;;13.00;99.90;15.20;97199.00;;;;5053235;28;20310;-72
2023/06/25 01:24:44;;;;;;;9.53;6.07;;;13.00;99.90;15.20;97200.00;;;;5047387;28;20200;-72
2023/06/25 01:27:34;;;;;;;5.90;4.90;;;13.00;99.90;15.10;97202.00;;;;5046646;28;20200;-72
2023/06/25 01:30:25;;;;;;;6.00;4.93;;;13.00;99.90;15.10;97194.00;;;;5050387;28;20630;-71
2023/06/25 01:33:15;;;;;;;5.13;4.57;;;12.90;99.90;15.20;97187.00;;;;5046887;28;20200;-72
2023/06/25 01:36:05;;;;;;;9.47;5.80;;;12.90;99.90;15.10;97183.00;;;;5047966;28;20723;-72
2023/06/25 01:38:54;;;;;;;8.80;5.37;;;12.90;99.90;14.90;97193.00;;;;5045441;28;20239;-72
2023/06/25 01:41:44;;;;;;;7.93;5.20;;;12.90;99.90;14.50;97177.00;;;;5049855;28;20236;-72
2023/06/25 01:44:33;;;;;;;8.93;4.97;;;12.80;99.90;14.40;97183.00;;;;5051462;28;20542;-72
2023/06/25 01:47:22;;;;;;;7.03;4.67;;;12.60;99.90;14.80;97190.00;;;;5051592;28;20209;-71
2023/06/25 01:50:11;;;;;;;5.47;4.90;;;12.60;99.90;14.60;97176.00;;;;5047281;28;20613;-72
2023/06/25 01:53:00;;;;;;;5.60;4.27;;;12.60;99.90;14.30;97174.00;;;;5053418;28;20195;-71
2023/06/25 01:55:49;;;;;;;6.90;5.10;;;12.50;99.90;14.40;97178.00;;;;5045477;28;20204;-72
2023/06/25 01:58:39;;;;;;;10.10;5.27;;;12.50;99.90;14.10;97167.00;;;;5050276;28;20196;-71
2023/06/25 02:01:29;;;;;;;5.47;4.93;;;12.40;99.90;13.70;97157.00;;;;5053388;28;20200;-71
2023/06/25 02:04:18;;;;;;;9.97;4.63;;;12.20;99.90;14.20;97162.00;;;;5055880;28;20561;-71
2023/06/25 02:07:07;;;;;;;5.80;5.20;;;12.20;99.90;14.00;97150.00;;;;5051088;28;20208;-71
2023/06/25 02:09:58;;;;;;;7.20;5.20;;;12.10;99.90;13.80;97159.00;;;;5046052;28;20228;-71
2023/06/25 02:12:47;;;;;;;5.73;4.90;;;12.10;99.90;13.90;97163.00;;;;5052737;28;20687;-72
2023/06/25 02:15:37;;;;;;;7.20;5.00;;;12.00;99.90;14.40;97162.00;;;;5050714;28;20209;-70
2023/06/25 02:18:26;;;;;;;8.50;6.07;;;12.10;99.90;14.40;97158.00;;;;5049612;28;20833;-71
2023/06/25 02:21:15;;;;;;;6.73;5.37;;;12.10;99.90;14.50;97152.00;;;;5051478;28;20215;-71
2023/06/25 02:24:04;;;;;;;10.57;5.50;;;12.10;99.90;14.40;97157.00;;;;5046545;28;20205;-71
2023/06/25 02:26:53;;;;;;;6.50;5.13;;;12.20;99.90;13.90;97156.00;;;;5050617;28;20276;-71
2023/06/25 02:29:42;;;;;;;7.67;5.43;;;12.10;99.90;13.90;97148.00;;;;5051138;28;20331;-71
2023/06/25 02:32:32;;;;;;;5.83;5.23;;;12.00;99.90;14.20;97155.00;;;;5048166;28;20205;-71
2023/06/25 02:35:21;;;;;;;6.57;5.97;;;12.10;99.90;14.00;97150.00;;;;5049663;28;20204;-71
2023/06/25 02:38:10;;;;;;;7.83;5.27;;;12.10;99.90;13.60;97147.00;;;;5050181;28;20205;-71
2023/06/25 02:40:59;;;;;;;9.20;5.37;;;12.00;99.90;13.60;97150.00;;;;5045370;28;20212;-71
2023/06/25 02:43:48;;;;;;;6.53;5.57;;;11.90;99.90;13.70;97148.00;;;;5056139;28;20277;-72
2023/06/25 02:46:37;;;;;;;5.30;4.90;;;11.80;99.90;13.80;97150.00;;;;5048401;28;20197;-71
2023/06/25 02:49:27;;;;;;;6.73;6.03;;;11.80;99.90;14.20;97161.00;;;;5049758;28;20224;-72
2023/06/25 02:52:16;;;;;;;7.00;5.80;;;11.90;99.90;14.40;97155.00;;;;5046170;28;20262;-71
2023/06/25 02:55:06;;;;;;;6.17;5.00;;;11.90;99.90;14.20;97158.00;;;;5049956;28;20219;-71
2023/06/25 02:57:56;;;;;;;7.53;4.93;;;12.00;99.90;14.40;97155.00;;;;5047242;28;20744;-72
2023/06/25 03:00:44;;;;;;;7.13;5.77;;;12.00;99.90;14.10;97162.00;;;;5042953;28;20224;-71
2023/06/25 03:03:33;;;;;;;5.60;4.80;;;12.00;99.90;14.00;97159.00;;;;5047993;28;20707;-71
2023/06/25 03:06:23;;;;;;;5.80;5.03;;;12.00;99.90;14.00;97167.00;;;;5048451;28;20246;-71
2023/06/25 03:09:12;;;;;;;6.53;5.40;;;12.00;99.90;14.10;97176.00;;;;5051064;28;20224;-71
2023/06/25 03:12:01;;;;;;;5.73;5.13;;;11.90;99.90;14.30;97167.00;;;;5044411;28;20243;-72
2023/06/25 03:14:50;;;;;;;5.90;5.13;;;12.00;99.90;14.10;97175.00;;;;5049930;28;20212;-72
2023/06/25 03:17:39;;;;;;;9.70;4.80;;;12.00;99.90;13.70;97183.00;;;;5048913;28;20560;-71
2023/06/25 03:20:28;;;;;;;6.43;5.83;;;11.90;99.90;13.40;97177.00;;;;5048137;28;20709;-71
2023/06/25 03:23:18;;;;;;;7.43;4.93;;;11.80;99.90;13.40;97177.00;;;;5047530;28;20239;-71
2023/06/25 03:26:07;;;;;;;5.47;4.83;;;11.70;99.90;13.20;97182.00;;;;5049248;28;20664;-71
2023/06/25 03:28:56;;;;;;;6.67;4.97;;;11.60;99.90;13.00;97176.00;;;;5042587;28;20232;-71
2023/06/25 03:31:45;;;;;;;7.67;5.10;;;11.60;99.90;13.30;97176.00;;;;5048518;28;20208;-71
2023/06/25 03:34:34;;;;;;;5.43;4.70;;;11.50;99.90;13.70;97184.00;;;;5048338;28;20676;-71
2023/06/25 03:37:23;;;;;;;6.60;4.83;;;11.60;99.90;13.80;97191.00;;;;5048938;28;20196;-71
2023/06/25 03:40:14;;;;;;;6.00;5.03;;;11.70;99.90;14.00;97189.00;;;;5045873;28;20223;-72
2023/06/25 03:43:03;;;;;;;6.73;5.60;;;11.80;99.90;14.00;97190.00;;;;5052179;28;20220;-71
2023/06/25 03:45:51;;;;;;;7.13;5.77;;;11.80;99.90;13.60;97188.00;;;;5049864;28;20204;-71
2023/06/25 03:48:42;;;;;;;9.70;5.30;;;11.80;99.90;13.80;97198.00;;;;5047793;28;20416;-71
2023/06/25 03:51:31;;;;;;;5.63;4.87;;;11.80;99.90;13.90;97193.00;;;;5046053;28;20216;-71
2023/06/25 03:54:20;;;;;;;6.90;5.60;;;11.80;99.90;14.20;97202.00;;;;5051413;28;20193;-71
2023/06/25 03:57:10;;;;;;;9.87;5.60;;;11.80;99.90;13.90;97190.00;;;;5047864;28;20829;-71
2023/06/25 03:59:59;;;;;;;5.93;5.00;;;11.80;99.90;13.80;97209.00;;;;5048551;28;20216;-71
2023/06/25 04:02:47;;;;;;;6.67;4.90;;;11.80;99.90;13.90;97205.00;;;;5053255;28;20224;-71
2023/06/25 04:05:36;;;;;;;7.67;5.90;;;11.80;99.90;13.80;97207.00;;;;5050998;28;20201;-71
2023/06/25 04:08:25;;;;;;;7.83;5.20;;;11.80;99.90;13.90;97209.00;;;;5049899;28;20212;-71
2023/06/25 04:11:14;;;;;;;5.23;4.73;;;11.90;99.90;14.00;97208.00;;;;5045476;28;20197;-71
2023/06/25 04:14:04;;;;;;;6.10;5.20;;;11.90;99.90;13.60;97211.00;;;;5047280;28;20726;-71
2023/06/25 04:16:53;;;;;;;7.83;4.93;;;11.90;99.90;13.10;97214.00;;;;5049279;28;20201;-71
2023/06/25 04:19:42;;;;;;;7.27;5.53;;;11.80;99.90;13.50;97205.00;;;;5040056;28;20220;-71
2023/06/25 04:22:31;;;;;;;7.03;5.07;;;11.70;99.90;13.70;97209.00;;;;5044927;28;20271;-71
2023/06/25 04:25:20;;;;;;;6.97;5.40;;;11.70;99.90;13.70;97212.00;;;;5047635;28;20219;-71
2023/06/25 04:28:15;;;;;;;7.27;5.23;;;11.80;99.90;13.60;97210.00;;;;5047476;28;20231;-71
2023/06/25 04:31:05;;;;;;;7.15;6.00;;;11.90;99.90;13.80;97214.00;;;;5051890;28;20468;-71
2023/06/25 04:33:54;;;;;;;6.47;5.87;;;11.90;99.90;14.20;97205.00;;;;5046887;28;20401;-71
2023/06/25 04:36:43;;;;;;;6.97;5.60;;;12.00;99.90;14.40;97212.00;;;;5057847;28;20200;-72
2023/06/25 04:39:31;;;;;;;6.47;5.53;;;12.20;99.90;14.80;97209.00;;;;5048096;28;20232;-72
2023/06/25 04:42:20;;;;;;;7.33;6.33;;;12.30;99.90;14.80;97215.00;;;;5050963;28;20269;-72
2023/06/25 04:45:10;;;;;;;5.97;5.27;;;12.40;99.90;14.80;97212.00;;;;5043641;28;20212;-71
2023/06/25 04:48:00;;;;;;;8.40;5.23;;;12.60;99.90;15.30;97214.00;;;;5050437;28;20210;-72
2023/06/25 04:50:49;;;;;;;5.53;5.00;;;12.70;99.90;15.50;97212.00;;;;5042374;28;20204;-72
2023/06/25 04:53:38;;;;;;;6.90;4.70;;;12.90;99.90;15.10;97205.00;;;;5046540;28;20204;-72
2023/06/25 04:56:27;;;;;;;5.43;4.87;;;12.90;99.90;15.20;97201.00;;;;5048071;28;20196;-72
2023/06/25 04:59:16;;;;;;;8.30;5.40;;;13.00;99.90;15.20;97206.00;;;;5046275;28;20251;-71
2023/06/25 05:02:06;;;;;;;8.17;5.30;;;13.10;99.90;15.50;97210.00;;;;5047101;28;20709;-72
2023/06/25 05:04:57;;;;;;;6.70;4.57;;;13.20;99.90;15.70;97202.00;;;;5041920;28;20243;-72
2023/06/25 05:07:47;;;;;;;8.53;5.40;;;13.30;99.90;15.70;97209.00;;;;5046568;28;20579;-72
2023/06/25 05:10:36;;;;;;;6.60;5.33;;;13.40;99.90;15.90;97198.00;;;;5050008;28;20279;-72
2023/06/25 05:13:25;;;;;;;6.47;5.77;;;13.50;99.90;16.20;97196.00;;;;5046011;28;20196;-72
2023/06/25 05:16:13;;;;;;;7.60;5.80;;;13.60;99.90;16.30;97197.00;;;;5050984;28;20208;-72
2023/06/25 05:19:02;;;;;;;7.03;5.97;;;13.80;99.90;16.30;97202.00;;;;5042450;28;20220;-71
2023/06/25 05:21:52;;;;;;;5.97;5.10;;;13.90;99.90;16.60;97199.00;;;;5046813;28;20223;-72
2023/06/25 05:24:41;;;;;;;7.40;5.70;;;14.10;99.90;16.70;97200.00;;;;5050002;28;20224;-72
2023/06/25 05:27:30;;;;;;;7.50;5.20;;;14.20;99.90;16.90;97203.00;;;;5047574;28;20219;-72
2023/06/25 05:30:19;;;;;;;7.87;5.87;;;14.30;99.90;17.20;97195.00;;;;5042406;28;20325;-72
2023/06/25 05:33:08;;;;;;;7.03;5.17;;;14.50;99.90;17.30;97187.00;;;;5046428;28;20227;-72
2023/06/25 05:35:57;;;;;;;6.73;5.43;;;14.60;99.90;17.60;97196.00;;;;5045073;28;20196;-72
2023/06/25 05:38:47;;;;;;;5.83;4.77;;;14.80;99.90;17.80;97190.00;;;;5045936;28;20224;-72
2023/06/25 05:41:40;;;;;;;6.20;5.23;;;15.00;99.90;18.30;97190.00;;;;5046651;28;20204;-72
2023/06/25 05:44:29;;;;;;;6.10;5.17;;;15.20;99.90;18.50;97189.00;;;;5044346;28;20599;-72
2023/06/25 05:47:17;;;;;;;8.83;5.97;;;15.40;99.90;18.60;97192.00;;;;5046092;28;20201;-72
2023/06/25 05:50:07;;;;;;;10.30;6.50;;;15.60;99.90;18.90;97196.00;;;;5040726;28;20224;-72
2023/06/25 05:52:56;;;;;;;9.83;6.13;;;15.80;99.90;19.20;97194.00;;;;5046906;28;20212;-72
2023/06/25 05:55:47;;;;;;;6.40;5.80;;;16.00;99.90;19.50;97186.00;;;;5042831;28;20216;-72
2023/06/25 05:58:36;;;;;;;6.83;6.03;;;16.30;99.90;19.70;97192.00;;;;5025652;28;20209;-72
2023/06/25 06:01:25;;;;;;;5.53;4.90;;;16.50;99.90;19.80;97193.00;;;;5024478;28;20207;-72
2023/06/25 06:04:14;;;;;;;8.60;5.97;;;16.70;99.90;19.90;97196.00;;;;5039470;28;20245;-72
2023/06/25 06:07:05;;;;;;;5.43;4.90;;;16.80;99.90;19.90;97194.00;;;;5049518;28;20208;-72
2023/06/25 06:09:54;;;;;;;8.73;5.87;;;17.00;99.90;20.10;97190.00;;;;5043779;28;20768;-72
2023/06/25 06:12:44;;;;;;;8.67;5.50;;;17.10;99.90;20.00;97188.00;;;;5046843;28;20212;-74
2023/06/25 06:15:33;;;;;;;9.20;6.00;;;17.30;99.90;19.90;97187.00;;;;5046064;28;20215;-73
2023/06/25 06:18:22;;;;;;;7.13;5.10;;;17.40;99.90;19.90;97185.00;;;;5057851;28;20547;-72
2023/06/25 06:21:11;;;;;;;6.97;5.30;;;17.40;99.90;20.10;97180.00;;;;5043452;28;20216;-72
2023/06/25 06:23:59;;;;;;;8.13;5.03;;;17.50;99.90;19.90;97184.00;;;;5041122;28;20220;-73
2023/06/25 06:26:50;;;;;;;5.83;4.70;;;17.50;99.90;20.40;97184.00;;;;5048316;28;20232;-73
2023/06/25 06:29:40;;;;;;;6.97;5.40;;;17.60;99.90;20.40;97175.00;;;;5006825;28;1206052;-73
2023/06/25 06:32:29;;;;;;;6.93;5.07;;;17.80;99.90;20.60;97178.00;;;;5048658;28;20261;-73
2023/06/25 06:35:18;;;;;;;5.70;4.87;;;17.90;99.90;21.00;97181.00;;;;5046916;28;20668;-73
2023/06/25 06:38:07;;;;;;;4.70;4.30;;;18.00;99.90;20.70;97179.00;;;;5045560;28;20216;-72
2023/06/25 06:40:57;;;;;;;6.20;5.00;;;18.10;99.90;21.30;97180.00;;;;5047843;28;20209;-73
2023/06/25 06:43:46;;;;;;;7.67;5.10;;;18.30;99.90;21.80;97175.00;;;;5043046;28;20205;-74
2023/06/25 06:46:36;;;;;;;7.03;4.40;;;18.50;99.90;22.10;97171.00;;;;5049312;28;20212;-73
2023/06/25 06:49:25;;;;;;;6.10;5.20;;;18.70;99.90;22.30;97173.00;;;;5047593;28;20231;-73
2023/06/25 06:52:15;;;;;;;6.63;4.73;;;19.00;99.90;22.40;97166.00;;;;5054153;28;20208;-72
2023/06/25 06:55:04;;;;;;;8.73;4.30;;;19.20;99.90;22.60;97174.00;;;;5051699;28;20690;-74
2023/06/25 06:57:53;;;;;;;7.27;5.07;;;19.40;99.90;22.80;97167.00;;;;5064368;28;20208;-72
2023/06/25 07:00:42;;;;;;;6.40;4.47;;;19.60;99.90;22.60;97166.00;;;;5053912;28;20722;-73
2023/06/25 07:03:32;;;;;;;6.93;5.10;;;19.70;99.90;22.90;97161.00;;;;5049730;28;20218;-70
2023/06/25 07:06:21;;;;;;;4.33;3.93;;;19.90;99.90;23.40;97175.00;;;;5046414;28;20688;-74
2023/06/25 07:09:10;;;;;;;6.37;5.33;;;20.00;99.90;23.50;97159.00;;;;5053995;28;20228;-73
2023/06/25 07:11:59;;;;;;;5.90;4.67;;;20.30;99.90;23.60;97167.00;;;;5044638;28;20250;-75
2023/06/25 07:14:48;;;;;;;7.67;4.90;;;20.40;99.90;23.90;97161.00;;;;5054053;28;20811;-73
2023/06/25 07:17:37;;;;;;;8.07;4.87;;;20.60;99.90;23.70;97169.00;;;;5049564;28;20574;-71
2023/06/25 07:20:27;;;;;;;8.17;4.50;;;20.70;99.90;24.20;97160.00;;;;5048067;28;20285;-73
2023/06/25 07:23:16;;;;;;;8.23;4.63;;;20.90;99.90;23.80;97158.00;;;;5049480;28;20258;-74
2023/06/25 07:26:05;;;;;;;7.50;5.30;;;21.00;99.90;24.40;97164.00;;;;5045044;28;20225;-72
2023/06/25 07:28:54;;;;;;;10.23;4.77;;;21.20;99.90;24.80;97153.00;;;;5053594;28;20220;-75
2023/06/25 07:31:43;;;;;;;5.27;4.67;;;21.40;99.90;24.80;97159.00;;;;5050887;28;20679;-72
2023/06/25 07:34:32;;;;;;;10.17;5.07;;;21.60;99.90;25.10;97153.00;;;;5045749;28;20242;-73
2023/06/25 07:37:22;;;;;;;5.83;5.23;;;21.70;99.90;25.30;97149.00;;;;5047328;28;20234;-74
2023/06/25 07:40:11;;;;;;;6.13;4.80;;;21.90;99.90;25.40;97137.00;;;;5048314;28;20220;-71
2023/06/25 07:43:00;;;;;;;7.27;5.07;;;22.10;99.90;25.20;97144.00;;;;5048520;28;20718;-73
2023/06/25 07:45:49;;;;;;;13.80;6.17;;;22.20;99.90;25.70;97132.00;;;;5041950;28;20293;-74
2023/06/25 07:48:38;;;;;;;6.90;4.80;;;22.40;99.90;25.70;97128.00;;;;5052636;28;20201;-74
2023/06/25 07:51:27;;;;;;;4.80;4.30;;;22.50;99.90;25.80;97124.00;;;;5049258;28;20697;-73
2023/06/25 07:54:17;;;;;;;6.47;5.07;;;22.60;99.90;25.90;97127.00;;;;5047728;28;20201;-73
2023/06/25 07:57:07;;;;;;;4.70;4.20;;;22.80;99.90;26.10;97125.00;;;;5045285;28;20205;-73
2023/06/25 07:59:55;;;;;;;6.90;5.00;;;22.90;99.90;26.30;97127.00;;;;5045186;28;20228;-71
2023/06/25 08:02:44;;;;;;;5.33;4.83;;;23.10;99.90;26.40;97123.00;;;;5045586;28;20211;-71
2023/06/25 08:05:33;;;;;;;4.90;4.43;;;23.20;99.90;26.40;97113.00;;;;5045217;28;20852;-73
2023/06/25 08:08:22;;;;;;;6.57;5.00;;;23.30;99.90;26.80;97112.00;;;;5043331;28;20695;-72
2023/06/25 08:11:12;;;;;;;5.03;3.70;;;23.40;99.90;26.80;97106.00;;;;5041719;28;20223;-70
2023/06/25 08:14:01;;;;;;;4.70;4.07;;;23.60;99.90;27.00;97106.00;;;;5044658;28;20259;-74
2023/06/25 08:16:50;;;;;;;4.57;3.77;;;23.70;99.90;27.10;97112.00;;;;5052097;28;20197;-73
2023/06/25 08:19:39;;;;;;;7.33;4.97;;;23.80;99.90;27.40;97105.00;;;;5045578;28;20228;-73
2023/06/25 08:22:28;;;;;;;5.30;4.60;;;24.00;99.90;27.60;97106.00;;;;5046904;28;20204;-73
2023/06/25 08:25:23;;;;;;;5.57;4.70;;;24.10;99.90;27.00;97109.00;;;;5045819;28;20715;-74
2023/06/25 08:28:13;;;;;;;6.23;4.60;;;24.30;99.00;27.00;97099.00;;;;5047896;28;20562;-74
2023/06/25 08:31:02;;;;;;;5.40;4.70;;;24.20;96.70;27.30;97096.00;;;;5039035;28;20234;-73
2023/06/25 08:33:51;;;;;;;6.13;4.80;;;24.30;95.60;27.60;97100.00;;;;5043327;28;20305;-73
2023/06/25 08:36:40;;;;;;;6.43;5.83;;;24.40;95.20;27.20;97099.00;;;;5048355;28;20195;-73
2023/06/25 08:39:28;;;;;;;6.60;5.10;;;24.50;93.70;27.30;97090.00;;;;5043296;28;20292;-74
2023/06/25 08:42:17;;;;;;;6.47;5.33;;;24.50;93.20;28.00;97105.00;;;;5051727;28;20697;-73
2023/06/25 08:45:10;;;;;;;5.27;4.77;;;24.60;94.00;26.70;97093.00;;;;5046682;28;20225;-75
2023/06/25 08:48:04;;;;;;;7.17;5.73;;;24.60;92.20;27.80;97097.00;;;;5047175;28;20199;-74
2023/06/25 08:50:57;;;;;;;7.57;5.77;;;24.70;92.60;28.10;97087.00;;;;5048038;28;20690;-73
2023/06/25 08:53:46;;;;;;;6.63;6.00;;;24.90;91.90;28.20;97084.00;;;;5045164;28;20195;-73
2023/06/25 08:56:35;;;;;;;6.40;5.50;;;24.90;91.10;28.10;97091.00;;;;5049289;28;20206;-73
2023/06/25 08:59:24;;;;;;;8.53;5.57;;;25.10;88.10;28.60;97079.00;;;;5044906;28;20218;-73
2023/06/25 09:02:14;;;;;;;8.03;5.77;;;25.30;90.10;28.70;97081.00;;;;5046915;28;20216;-73
2023/06/25 09:05:07;;;;;;;5.97;5.13;;;25.40;88.30;28.70;97085.00;;;;5048082;28;20690;-73
2023/06/25 09:07:56;;;;;;;6.00;5.33;;;25.60;85.30;28.30;97085.00;;;;5041291;28;20260;-72
2023/06/25 09:10:51;;;;;;;7.63;6.30;;;25.60;85.10;28.80;97088.00;;;;5050769;28;20610;-72
2023/06/25 09:13:40;;;;;;;6.40;5.73;;;25.60;85.40;29.40;97088.00;;;;5045633;28;20201;-73
2023/06/25 09:16:29;;;;;;;7.87;6.30;;;25.80;87.10;27.80;97086.00;;;;5047495;28;20212;-73
2023/06/25 09:19:21;;;;;;;6.03;5.43;;;25.80;79.20;27.40;97069.00;;;;5046792;28;20289;-74
2023/06/25 09:22:09;;;;;;;6.90;5.33;;;25.60;79.40;28.60;97072.00;;;;5042587;28;20251;-73
2023/06/25 09:24:58;;;;;;;7.13;5.63;;;25.50;82.80;29.20;97069.00;;;;5050420;28;20208;-73
2023/06/25 09:27:48;;;;;;;6.27;5.47;;;25.80;83.00;29.70;97070.00;;;;5045570;28;20203;-73
2023/06/25 09:30:39;;;;;;;7.20;5.97;;;26.00;83.50;29.90;97077.00;;;;5047053;28;20232;-72
2023/06/25 09:33:35;;;;;;;5.97;5.17;;;26.30;84.10;30.10;97062.00;;;;5044776;28;20317;-72
2023/06/25 09:36:33;;;;;;;6.60;5.20;;;26.60;82.70;29.70;97068.00;;;;5048851;28;20563;-75
2023/06/25 09:39:25;;;;;;;5.27;4.77;;;26.60;78.00;30.00;97064.00;;;;5053597;28;20229;-72
2023/06/25 09:42:15;;;;;;;5.93;5.33;;;26.70;77.40;29.30;97060.00;;;;5047668;28;20214;-74
2023/06/25 09:45:06;;;;;;;7.57;6.17;;;26.80;76.70;30.00;97057.00;;;;5042779;28;20201;-74
2023/06/25 09:47:57;;;;;;;10.43;5.60;;;26.80;77.30;30.20;97056.00;;;;5047993;28;20241;-76
2023/06/25 09:50:48;;;;;;;6.07;5.47;;;27.00;78.80;30.90;97053.00;;;;5047746;28;20223;-74
2023/06/25 09:53:44;;;;;;;6.23;5.60;;;27.20;79.60;30.40;97059.00;;;;5046488;28;20241;-73
2023/06/25 09:56:35;;;;;;;5.50;5.00;;;27.40;74.80;30.40;97057.00;;;;5046366;28;20202;-71
2023/06/25 09:59:26;;;;;;;7.20;6.27;;;27.30;74.80;30.80;97060.00;;;;5047819;28;20241;-71
2023/06/25 10:02:15;;;;;;;6.17;5.57;;;27.50;74.90;30.90;97049.00;;;;5050621;28;20272;-72
2023/06/25 10:05:05;;;;;;;6.50;5.90;;;27.60;74.00;30.90;97042.00;;;;5042836;28;20299;-72
2023/06/25 10:07:54;;;;;;;6.07;5.47;;;27.60;74.10;31.50;97042.00;;;;5042583;28;20666;-72
2023/06/25 10:10:44;;;;;;;7.47;6.07;;;27.80;75.20;31.40;97037.00;;;;5052732;28;20229;-72
2023/06/25 10:13:33;;;;;;;6.10;5.50;;;28.00;75.20;32.00;97042.00;;;;5048588;28;20208;-72
2023/06/25 10:16:22;;;;;;;6.07;5.47;;;28.30;75.10;32.30;97030.00;;;;5048347;28;20207;-72
2023/06/25 10:19:21;;;;;;;5.97;5.23;;;28.50;75.40;32.50;97037.00;;;;5050804;28;20612;-73
2023/06/25 10:22:12;;;;;;;6.83;5.67;;;28.80;74.70;31.30;97035.00;;;;5044674;28;20572;-73
2023/06/25 10:25:01;;;;;;;7.67;5.70;;;28.60;69.90;31.80;97035.00;;;;5053198;28;20199;-73
2023/06/25 10:27:51;;;;;;;8.97;5.67;;;28.70;70.00;31.90;97027.00;;;;5054184;28;20237;-74
2023/06/25 10:33:33;;;;;;;7.00;5.87;;;28.70;70.60;32.50;97021.00;;;;4987228;28;20215;-93
2023/06/25 10:36:25;;;;;;;6.03;5.43;;;28.90;71.20;32.90;97014.00;;;;4985687;28;20228;-92
2023/06/25 10:39:14;;;;;;;7.63;6.03;;;29.10;70.90;33.20;97015.00;;;;4990927;28;20246;-92
2023/06/25 10:42:04;;;;;;;5.87;5.23;;;29.30;70.40;32.60;97012.00;;;;4987195;28;20263;-91
2023/06/25 10:44:55;;;;;;;6.00;5.40;;;29.40;68.40;31.90;97008.00;;;;4990698;28;20205;-90
2023/06/25 10:47:45;;;;;;;6.50;5.83;;;29.20;64.40;32.10;96993.00;;;;4991365;28;20209;-92
2023/06/25 10:50:35;;;;;;;7.13;5.37;;;29.20;67.30;32.60;96991.00;;;;4986473;28;20211;-92
2023/06/25 10:53:24;;;;;;;6.60;5.90;;;29.20;66.60;33.30;97001.00;;;;4984207;28;20744;-91
2023/06/25 10:56:13;;;;;;;7.10;6.10;;;29.40;67.40;33.10;96991.00;;;;4985125;28;20288;-89
2023/06/25 10:59:02;;;;;;;6.87;5.63;;;29.60;69.00;33.40;97003.00;;;;4992635;28;20265;-90
2023/06/25 11:01:53;;;;;;;8.67;6.27;;;29.70;68.40;33.60;96989.00;;;;4981062;28;20689;-92
2023/06/25 11:04:42;;;;;;;8.27;5.85;;;29.90;67.20;33.70;96986.00;;;;4990685;28;20199;-91
2023/06/25 11:07:31;;;;;;;6.25;5.60;;;30.10;64.70;33.60;96989.00;;;;4990966;28;20261;-92
2023/06/25 11:10:24;;;;;;;6.45;5.70;;;30.30;61.20;32.40;96964.00;;;;4991206;28;20253;-89
2023/06/25 11:13:14;;;;;;;6.20;5.60;;;30.20;61.00;31.00;96973.00;;;;4991659;28;20688;-90
2023/06/25 11:16:05;;;;;;;6.83;6.13;;;29.50;59.10;31.90;96961.00;;;;4987468;28;20236;-90
2023/06/25 11:18:55;;;;;;;7.93;5.87;;;29.20;62.90;32.40;96971.00;;;;4986144;28;20206;-92
2023/06/25 11:21:44;;;;;;;7.03;6.33;;;29.20;64.00;32.70;96961.00;;;;4995437;28;20208;-90
2023/06/25 11:24:35;;;;;;;7.07;6.37;;;29.30;65.60;30.90;96958.00;;;;4990571;28;20213;-91
2023/06/25 11:27:29;;;;;;;6.90;5.40;;;29.10;61.20;32.30;96960.00;;;;4990280;28;20715;-89
2023/06/25 11:30:18;;;;;;;7.53;5.63;;;29.20;63.20;33.00;96952.00;;;;4989067;28;20209;-93
2023/06/25 11:33:10;;;;;;;7.07;5.50;;;29.30;64.50;34.30;96952.00;;;;4987050;28;20302;-93
2023/06/25 11:36:12;;;;;;;6.60;5.87;;;29.80;63.90;34.50;96949.00;;;;4989371;28;20225;-93
2023/06/25 11:39:02;;;;;;;6.53;5.43;;;30.30;62.30;34.40;96950.00;;;;4989773;28;20208;-93
2023/06/25 11:41:51;;;;;;;5.93;5.07;;;30.60;62.90;35.10;96944.00;;;;4994170;28;20235;-94
2023/06/25 11:44:41;;;;;;;6.03;5.45;;;30.90;62.20;35.70;96943.00;;;;4995094;28;20219;-93
2023/06/25 11:47:33;;;;;;;6.03;5.43;;;31.30;62.20;35.30;96945.00;;;;4993882;28;20214;-93
2023/06/25 11:50:24;;;;;;;6.18;5.57;;;31.50;59.70;36.20;96942.00;;;;5010143;28;20224;-93
2023/06/25 11:53:19;;;;;;;7.07;6.07;;;31.90;62.40;36.40;96934.00;;;;5004504;28;20450;-94
2023/06/25 11:56:20;;;;;;;6.25;5.68;;;32.10;60.80;36.20;96932.00;;;;5006500;28;20218;-94
2023/06/25 11:59:13;;;;;;;6.13;4.97;;;32.30;60.70;37.00;96928.00;;;;5007471;28;20220;-94
2023/06/25 12:02:05;;;;;;;6.85;6.15;;;32.50;61.30;37.00;96929.00;;;;5012880;28;20203;-94
2023/06/25 12:04:54;;;;;;;6.25;5.28;;;32.90;58.90;35.20;96918.00;;;;4992163;28;20734;-92
2023/06/25 12:07:43;;;;;;;5.78;5.28;;;32.80;56.20;35.60;96915.00;;;;4994640;28;20229;-94
2023/06/25 12:10:35;;;;;;;6.45;5.45;;;32.60;57.90;36.70;96925.00;;;;4996455;28;20203;-93
2023/06/25 12:13:24;;;;;;;8.40;6.18;;;32.70;59.90;36.30;96921.00;;;;4995736;28;20199;-94
2023/06/25 12:16:13;;;;;;;7.10;5.68;;;32.80;60.50;37.00;96924.00;;;;5009680;28;20412;-93
2023/06/25 12:19:07;;;;;;;7.05;5.72;;;32.90;62.00;37.20;96918.00;;;;5004187;28;20217;-95
2023/06/25 12:21:56;;;;;;;7.82;7.03;;;33.10;60.40;37.60;96918.00;;;;4997396;28;20222;-93
2023/06/25 12:24:46;;;;;;;6.47;5.88;;;33.40;60.00;37.00;96924.00;;;;4991957;28;20237;-95
2023/06/25 12:27:39;;;;;;;7.75;5.53;;;33.40;60.40;33.50;96909.00;;;;4987028;28;20202;-92
2023/06/25 12:30:34;;;;;;;7.38;6.35;;;32.80;55.70;32.90;96906.00;;;;4997575;28;20207;-95
2023/06/25 12:33:25;;;;;;;6.05;5.45;;;32.00;54.70;34.10;96905.00;;;;4989212;28;20206;-92
2023/06/25 12:36:14;;;;;;;6.00;5.50;;;31.50;56.50;34.60;96912.00;;;;4980657;28;20227;-91
2023/06/25 12:39:03;;;;;;;7.03;6.43;;;31.50;58.90;35.00;96910.00;;;;4982911;28;20210;-95